createdAt,value
2023-02-09T00:01:16.167Z,-2.90
2023-02-09T00:07:18.892Z,-2.90
2023-02-09T00:13:27.547Z,-2.90
2023-02-09T00:19:32.967Z,-2.90
2023-02-09T00:25:35.362Z,-3.00
2023-02-09T00:31:38.798Z,-3.00
2023-02-09T00:37:44.043Z,-3.00
2023-02-09T00:43:51.737Z,-3.10
2023-02-09T00:49:57.179Z,-3.20
2023-02-09T00:56:04.456Z,-3.20
2023-02-09T01:02:14.190Z,-3.20
2023-02-09T01:08:18.918Z,-3.20
2023-02-09T01:14:22.681Z,-3.20
2023-02-09T01:20:25.177Z,-3.10
2023-02-09T01:26:27.263Z,-3.20
2023-02-09T01:32:33.215Z,-3.30
2023-02-09T01:45:23.456Z,-3.60
2023-02-09T01:51:35.875Z,-3.70
2023-02-09T01:57:49.492Z,-3.80
2023-02-09T02:03:55.799Z,-3.80
2023-02-09T02:10:02.158Z,-3.80
2023-02-09T02:16:34.374Z,-3.80
2023-02-09T02:23:15.460Z,-3.90
2023-02-09T02:29:37.380Z,-3.90
2023-02-09T02:36:12.859Z,-3.80
2023-02-09T02:42:51.927Z,-3.70
2023-02-09T02:49:11.085Z,-3.70
2023-02-09T02:55:17.933Z,-3.60
2023-02-09T03:01:22.952Z,-3.50
2023-02-09T03:07:25.940Z,-3.60
2023-02-09T03:14:07.349Z,-3.70
2023-02-09T03:20:29.124Z,-3.80
2023-02-09T03:26:42.621Z,-4.00
2023-02-09T03:32:47.419Z,-4.10
2023-02-09T03:38:50.011Z,-4.20
2023-02-09T03:44:52.975Z,-4.20
2023-02-09T03:50:57.920Z,-4.10
2023-02-09T03:57:02.356Z,-3.90
2023-02-09T04:03:07.312Z,-3.70
2023-02-09T04:09:11.180Z,-3.70
2023-02-09T04:15:13.890Z,-3.70
2023-02-09T04:21:19.433Z,-3.80
2023-02-09T04:27:27.343Z,-3.90
2023-02-09T04:33:32.696Z,-4.10
2023-02-09T04:39:44.460Z,-4.10
2023-02-09T04:45:54.045Z,-4.10
2023-02-09T04:51:58.731Z,-4.00
2023-02-09T04:58:19.483Z,-3.90
2023-02-09T05:04:21.314Z,-4.00
2023-02-09T05:10:23.655Z,-4.10
2023-02-09T05:16:25.783Z,-4.00
2023-02-09T05:22:28.007Z,-4.00
2023-02-09T05:28:32.521Z,-4.00
2023-02-09T05:34:34.278Z,-4.10
2023-02-09T05:40:36.079Z,-4.10
2023-02-09T05:46:37.906Z,-4.10
2023-02-09T05:52:39.707Z,-4.10
2023-02-09T05:58:45.836Z,-4.10
2023-02-09T06:04:47.900Z,-4.10
2023-02-09T06:10:49.653Z,-4.10
2023-02-09T06:16:51.523Z,-4.20
2023-02-09T06:22:54.846Z,-4.20
2023-02-09T06:28:56.659Z,-4.20
2023-02-09T06:34:58.623Z,-4.30
2023-02-09T06:41:00.819Z,-4.40
2023-02-09T06:47:03.023Z,-4.40
2023-02-09T06:53:05.885Z,-4.50
2023-02-09T06:59:07.649Z,-4.60
2023-02-09T07:05:10.105Z,-4.40
2023-02-09T07:11:17.486Z,-4.30
2023-02-09T07:17:19.315Z,-4.20
2023-02-09T07:23:21.100Z,-4.10
2023-02-09T07:29:23.119Z,-3.90
2023-02-09T07:35:24.960Z,-3.70
2023-02-09T07:41:27.883Z,-3.60
2023-02-09T07:47:29.618Z,-3.40
2023-02-09T07:53:31.457Z,-3.20
2023-02-09T07:59:33.174Z,-2.80
2023-02-09T08:05:51.039Z,-2.50
2023-02-09T08:12:03.845Z,-2.30
2023-02-09T08:18:13.041Z,-2.20
2023-02-09T08:24:20.565Z,-2.00
2023-02-09T08:30:22.628Z,-1.70
2023-02-09T08:36:24.521Z,-1.70
2023-02-09T08:42:26.572Z,-1.50
2023-02-09T08:48:35.949Z,-1.40
2023-02-09T08:54:37.999Z,-1.20
2023-02-09T09:00:39.914Z,-1.00
2023-02-09T09:06:41.829Z,-0.90
2023-02-09T09:12:44.520Z,-0.90
2023-02-09T09:18:46.671Z,-0.70
2023-02-09T09:24:56.275Z,-0.70
2023-02-09T09:31:02.105Z,-0.50
2023-02-09T09:37:03.954Z,-0.30
2023-02-09T09:43:19.178Z,-0.10
2023-02-09T09:49:27.176Z,0.10
2023-02-09T09:55:31.689Z,0.50
2023-02-09T10:01:33.565Z,0.90
2023-02-09T10:07:35.903Z,1.30
2023-02-09T10:13:53.349Z,1.60
2023-02-09T10:20:07.235Z,2.10
2023-02-09T10:26:08.930Z,2.40
2023-02-09T10:32:18.631Z,2.70
2023-02-09T10:38:22.903Z,2.90
2023-02-09T10:44:35.388Z,2.70
2023-02-09T10:50:56.990Z,2.40
2023-02-09T10:56:59.730Z,2.70
2023-02-09T11:03:02.776Z,3.00
2023-02-09T11:09:12.591Z,2.80
2023-02-09T11:15:15.781Z,2.90
2023-02-09T11:21:24.274Z,3.10
2023-02-09T11:27:57.460Z,3.20
2023-02-09T11:34:33.382Z,2.70
2023-02-09T11:40:43.604Z,2.60
2023-02-09T11:46:47.993Z,2.90
2023-02-09T11:53:25.902Z,2.90
2023-02-09T11:59:43.352Z,3.10
2023-02-09T12:05:45.567Z,3.10
2023-02-09T12:12:02.343Z,3.20
2023-02-09T12:18:24.208Z,3.80
2023-02-09T12:24:31.867Z,4.30
2023-02-09T12:30:39.823Z,4.70
2023-02-09T12:37:27.320Z,4.70
2023-02-09T12:43:33.300Z,5.00
2023-02-09T12:49:35.164Z,4.80
2023-02-09T12:55:38.104Z,4.80
2023-02-09T13:02:07.770Z,4.70
2023-02-09T13:08:18.317Z,4.80
2023-02-09T13:14:22.346Z,4.90
2023-02-09T13:20:42.897Z,4.90
2023-02-09T13:26:56.665Z,4.90
2023-02-09T13:33:09.207Z,4.60
2023-02-09T13:39:24.667Z,4.60
2023-02-09T13:45:27.205Z,4.50
2023-02-09T13:51:29.042Z,4.20
2023-02-09T13:57:35.844Z,4.10
2023-02-09T14:03:57.422Z,4.40
2023-02-09T14:10:06.251Z,4.20
2023-02-09T14:16:08.659Z,4.30
2023-02-09T14:22:33.769Z,4.40
2023-02-09T14:28:37.073Z,4.40
2023-02-09T14:34:40.124Z,4.40
2023-02-09T14:40:41.854Z,4.20
2023-02-09T14:46:52.457Z,4.30
2023-02-09T14:53:06.539Z,4.20
2023-02-09T14:59:15.713Z,4.10
2023-02-09T15:05:18.604Z,3.90
2023-02-09T15:11:42.883Z,3.80
2023-02-09T15:17:45.095Z,3.60
2023-02-09T15:23:46.913Z,3.30
2023-02-09T15:29:49.133Z,3.10
2023-02-09T15:35:50.952Z,2.90
2023-02-09T15:42:11.200Z,2.70
2023-02-09T15:48:13.148Z,2.40
2023-02-09T15:54:20.321Z,2.30
2023-02-09T16:00:27.199Z,2.00
2023-02-09T16:06:29.114Z,1.80
2023-02-09T16:12:30.974Z,1.60
2023-02-09T16:18:32.773Z,1.60
2023-02-09T16:24:49.369Z,1.50
2023-02-09T16:30:54.267Z,1.50
2023-02-09T16:36:56.149Z,1.40
2023-02-09T16:42:59.959Z,1.40
2023-02-09T16:49:01.914Z,1.30
2023-02-09T16:55:06.914Z,1.10
2023-02-09T17:01:36.514Z,1.00
2023-02-09T17:08:25.491Z,0.90
2023-02-09T17:21:32.903Z,0.50
2023-02-09T17:28:10.788Z,0.40
2023-02-09T17:34:38.892Z,0.20
2023-02-09T17:41:05.585Z,-0.10
2023-02-09T17:54:39.459Z,-0.40
2023-02-09T18:01:00.518Z,-0.40
2023-02-09T18:07:03.550Z,-0.20
2023-02-09T18:13:16.702Z,-0.20
2023-02-09T18:19:48.315Z,-0.20
2023-02-09T18:26:03.399Z,-0.30
2023-02-09T18:32:10.682Z,-0.30
2023-02-09T18:38:39.076Z,-0.50
2023-02-09T18:44:57.377Z,-0.60
2023-02-09T18:51:23.016Z,-0.80
2023-02-09T18:57:42.717Z,-0.90
2023-02-09T19:04:03.597Z,-1.10
2023-02-09T19:10:57.453Z,-1.20
2023-02-09T19:17:02.449Z,-1.30
2023-02-09T19:23:26.370Z,-1.50
2023-02-09T19:30:00.688Z,-1.60
2023-02-09T19:36:03.604Z,-1.70
2023-02-09T19:49:06.171Z,-2.00
2023-02-09T19:55:25.605Z,-2.00
2023-02-09T20:01:50.915Z,-2.10
2023-02-09T20:08:05.692Z,-2.20
2023-02-09T20:14:10.849Z,-2.30
2023-02-09T20:20:12.789Z,-2.00
2023-02-09T20:26:23.148Z,-1.60
2023-02-09T20:32:25.889Z,-1.30
2023-02-09T20:38:32.987Z,-1.10
2023-02-09T20:44:57.362Z,-0.80
2023-02-09T20:51:07.336Z,-0.60
2023-02-09T20:57:09.347Z,-0.30
2023-02-09T21:03:11.696Z,0.00
2023-02-09T21:09:16.622Z,0.30
2023-02-09T21:15:18.644Z,0.50
2023-02-09T21:21:22.415Z,0.60
2023-02-09T21:27:28.553Z,0.70
2023-02-09T21:33:33.184Z,0.90
2023-02-09T21:39:38.142Z,0.90
2023-02-09T21:45:42.988Z,1.00
2023-02-09T21:51:48.962Z,1.10
2023-02-09T21:57:59.004Z,1.10
2023-02-09T22:04:02.274Z,1.10
2023-02-09T22:10:05.933Z,1.20
2023-02-09T22:16:09.566Z,1.20
2023-02-09T22:22:11.572Z,1.20
2023-02-09T22:28:14.263Z,1.30
2023-02-09T22:34:19.801Z,1.20
2023-02-09T22:40:22.298Z,1.20
2023-02-09T22:46:28.806Z,1.20
2023-02-09T22:52:32.771Z,1.20
2023-02-09T22:58:36.064Z,1.30
2023-02-09T23:04:39.317Z,1.20
2023-02-09T23:10:42.326Z,1.40
2023-02-09T23:16:49.652Z,1.40
2023-02-09T23:22:51.705Z,1.40
2023-02-09T23:28:57.290Z,1.40
2023-02-09T23:35:03.583Z,1.40
2023-02-09T23:41:13.135Z,1.50
2023-02-09T23:47:23.342Z,1.60
2023-02-09T23:53:44.256Z,1.50
2023-02-09T23:59:51.558Z,1.40
